Observations for Trim Market St
| Time | AQI | Temp °C | Hum % | Pres Pa | CO μg/m³ | H₂S μg/m³ | NO μg/m³ | NO₂ μg/m³ | O₃ μg/m³ | SO₂ μg/m³ | PM1 μg/m³ | PM2.5 μg/m³ | PM10 μg/m³ |
|---|---|---|---|---|---|---|---|---|---|---|---|---|---|
| Saturday 22 August 2026 | |||||||||||||
| 08:43 | 2 | 16.3 | 65 | 57,177 | 0.45 | 0 | 3.06 | 8.12 | 43.18 | 0 | 1.43 | 4.26 | 6.22 |
| 08:39 | 2 | 16.1 | 66 | 57,135 | 0.46 | 0 | 1.92 | 7.79 | 43.48 | 0 | 2.85 | 5.72 | 8.83 |
| 08:38 | 2 | 16 | 66 | 57,120 | 0.45 | 0 | 1.92 | 7.69 | 38.44 | 0 | 0 | 2.76 | 4.92 |
| 08:37 | 2 | 16 | 66 | 57,100 | 0.47 | 0 | 2.06 | 7.57 | 38.12 | 0 | 1.43 | 3.24 | 5.58 |
| 08:36 | 2 | 15.9 | 66 | 57,082 | 0.51 | 0 | 2.22 | 10.41 | 31.53 | 0 | 1.43 | 3.24 | 4.93 |
| 08:34 | 2 | 15.8 | 66 | 57,041 | 0.49 | 0 | 3.49 | 11.73 | 30.44 | 0 | 1.43 | 4.21 | 6.23 |
| 08:33 | 2 | 15.7 | 67 | 57,016 | 0.47 | 0 | 3.36 | 14.03 | 29.77 | 0 | 1.43 | 3.21 | 4.94 |
| 08:32 | 2 | 15.7 | 67 | 56,992 | 0.48 | 0 | 3.14 | 10.89 | 29.92 | 0 | 1.43 | 3.21 | 4.94 |
| 08:31 | 2 | 15.6 | 67 | 56,957 | 0.49 | 0 | 3.67 | 8.2 | 35.33 | 0 | 1.43 | 3.2 | 6.24 |
| 08:30 | 2 | 15.6 | 67 | 56,918 | 0.48 | 0 | 2.9 | 7.48 | 37.47 | 0 | 1.43 | 4.17 | 6.24 |
| 08:29 | 2 | 15.5 | 67 | 56,871 | 0.5 | 0 | 2.87 | 7.63 | 37.65 | 0 | 2.85 | 4.16 | 6.89 |
| 08:25 | 2 | 15.3 | 68 | 56,679 | 0.51 | 0 | 4.77 | 8.65 | 34.67 | 0 | 9.26 | 11.47 | 18.4 |
| 08:24 | 2 | 15.3 | 68 | 56,633 | 0.5 | 0 | 4.75 | 10.51 | 34.85 | 0 | 1.43 | 3.63 | 5.62 |
| 08:21 | 2 | 15.1 | 68 | 56,499 | 0.48 | 0 | 3.07 | 7.79 | 44 | 0 | 0.71 | 3.61 | 5.62 |
| 08:18 | 2 | 14.8 | 69 | 56,374 | 0.5 | 0 | 2.68 | 8.55 | 38.32 | 0 | 2.14 | 3.11 | 6.26 |
| 08:10 | 2 | 14.3 | 70 | 55,902 | 0.49 | 0 | 2.96 | 8.03 | 41.73 | 0 | 1.43 | 2.57 | 5.65 |
| 08:09 | 2 | 14.2 | 70 | 55,860 | 0.49 | 0 | 3.01 | 7.83 | 43.77 | 0 | 2.14 | 3.54 | 8.16 |
| 08:08 | 2 | 14.2 | 70 | 55,824 | 0.53 | 0 | 3.07 | 8.3 | 40.64 | 0 | 1.43 | 4.02 | 6.9 |
| 08:07 | 2 | 14.1 | 70 | 55,782 | 0.49 | 0 | 3.26 | 7.88 | 46.56 | 0 | 2.14 | 3.53 | 5.66 |
| 08:06 | 2 | 14 | 70 | 55,735 | 0.48 | 0 | 7.27 | 8.76 | 39.51 | 0 | 1.43 | 3.04 | 5.03 |